KMYR

Myrtle Beach International Airport

Myrtle Beach, South Carolina, USA
METAR KMYR 170356Z AUTO 22003KT 10SM BKN095 25/23 A3010 RMK AO2 RAE07 SLP193 P0001 T02500233
Observed Flight Rules
Oct-17 @ 03:56 UTC (2 hours ago) Visual Flight Rules
Wind Visibility Clouds
220° at 3 knots 10 miles
  • Broken at 9,500' AGL
Temperatures Readings Precipitation
Current 25°C / 77°F
Dewpoint 23°C / 73°F
Humidity 89%
Altimeter 30.1" Hg
Pressure 1019.3 hPa
Elevation 8
Current Rain 0.01
METAR KMYR 170356Z AUTO 22003KT 10SM BKN095 25/23 A3010 RMK AO2 RAE07 SLP193 P0001 T02500233
Observed Flight Rules
Oct-17 @ 03:56 UTC
(2 hours ago)
VFR
Wind Visibility
220° at 3 knots 10 miles
Clouds
  • Broken at 9,500' AGL
Temperature Dewpoint
25°C / 77°F 23°C / 73°F
Humidity Altimeter Pressure
89% 30.1" Hg 1019.3 hPa
Current Rain
0.01